This is the latest recevied weather packets stored in our database for station/object Ummendorf. If no packets are shown the sender has not sent any weather packets the latest 10 day(s).
| Time | Temp. | Humidity | Pressure | Rain* | Wind** | Luminosity | Snow |
|---|---|---|---|---|---|---|---|
| 1777919529 | 19.44° C | 38% | 1011.6 hPa | 0 mm | - | - | - |
| 1777917734 | 20.56° C | 39% | 1011.3 hPa | 0 mm | - | - | - |
| 1777915929 | 21.11° C | 35% | 1011.1 hPa | 0 mm | - | - | - |
| 1777914130 | 21.11° C | 34% | 1011.2 hPa | 0 mm | - | - | - |
| 1777912332 | 21.67° C | 33% | 1011.1 hPa | 0 mm | - | - | - |
| 1777910530 | 22.22° C | 30% | 1011.1 hPa | 0 mm | - | - | - |
| 1777908732 | 22.22° C | 31% | 1011.1 hPa | 0 mm | - | - | - |
| 1777906930 | 23.33° C | 30% | 1011.1 hPa | 0 mm | - | - | - |
| 1777905129 | 23.33° C | 27% | 1011.4 hPa | 0 mm | - | - | - |
| 1777903330 | 23.33° C | 28% | 1011.5 hPa | 0 mm | - | - | - |
| 1777901532 | 22.22° C | 31% | 1011.9 hPa | 0 mm | - | - | - |
| 1777899735 | 21.11° C | 33% | 1012 hPa | 0 mm | - | - | - |
| 1777897935 | 21.67° C | 33% | 1012.2 hPa | 0 mm | - | - | - |
| 1777896130 | 21.67° C | 33% | 1012.2 hPa | 0 mm | - | - | - |
| 1777894331 | 21.67° C | 31% | 1012.5 hPa | 0 mm | - | - | - |
| 1777892530 | 21.11° C | 30% | 1013 hPa | 0 mm | - | - | - |
| 1777890735 | 21.11° C | 30% | 1013 hPa | 0 mm | - | - | - |
| 1777888932 | 20.56° C | 31% | 1013.4 hPa | 0 mm | - | - | - |
| 1777887130 | 21.11° C | 30% | 1013.8 hPa | 0 mm | - | - | - |
| 1777885331 | 20.56° C | 32% | 1013.9 hPa | 0 mm | - | - | - |
| 1777883533 | 20° C | 34% | 1014.1 hPa | 0 mm | - | - | - |
| 1777881731 | 18.89° C | 36% | 1014.5 hPa | 0 mm | - | - | - |
| 1777879930 | 16.67° C | 41% | 1014.7 hPa | 0 mm | - | - | - |
| 1777878132 | 14.44° C | 46% | 1014.9 hPa | 0 mm | - | - | - |
| 1777876331 | 12.22° C | 51% | 1014.9 hPa | 0 mm | - | - | - |
* Rain since midnight (hover to see other rain measurements)
** Current wind speed in m/s (hover to see current wind gust speed)